Time;durP1;ratioP1;P1;durP2;ratioP2;P2;SDS_P1;SDS_P2;PMS_P1;PMS_P2;Temp;Humidity;BMP_temperature;BMP_pressure;BME280_temperature;BME280_humidity;BME280_pressure;Samples;Min_cycle;Max_cycle;Signal;HPM_P1;HPM_P2
2022/05/16 11:33:56;;;;;;;11.82;10.70;;;;;;;;;;5276699;23;20142;-75
2022/05/16 11:36:45;;;;;;;16.00;13.82;;;;;;;;;;4976156;28;20038;-79
2022/05/16 11:39:27;;;;;;;17.17;13.27;;;;;;;;;;4976359;28;20469;-75
2022/05/16 11:42:15;;;;;;;12.15;10.45;;;;;;;;;;4976204;28;20101;-78
2022/05/16 11:44:49;;;;;;;15.80;14.20;;;;;;;;;;4976176;28;20023;-77
2022/05/16 16:40:22;;;;;;;7.05;3.95;;;;;;;;;;5269624;23;20496;-75
2022/05/16 16:42:48;;;;;;;6.13;3.65;;;;;;;;;;4974858;28;20084;-74
2022/05/16 16:45:13;;;;;;;5.25;4.53;;;;;;;;;;4975207;28;20037;-74
2022/05/16 16:47:41;;;;;;;5.80;4.55;;;;;;;;;;4975272;28;20474;-75
2022/05/16 16:50:08;;;;;;;5.03;4.43;;;;;;;;;;4975016;28;20065;-74
2022/05/16 16:58:05;;;;;;;4.68;4.05;;;;;;;;;;4935267;28;20133;-74
2022/05/16 17:00:32;;;;;;;6.35;4.03;;;;;;;;;;4957888;28;20400;-73
2022/05/16 17:03:00;;;;;;;5.10;4.60;;;;;;;;;;4975103;28;20027;-76
2022/05/16 17:05:31;;;;;;;4.55;4.15;;;;;;;;;;4974187;28;20027;-77
2022/05/16 17:07:59;;;;;;;6.60;4.80;;;;;;;;;;4974712;28;20378;-76
2022/05/16 17:10:36;;;;;;;7.45;4.15;;;;;;;;;;4975052;28;20477;-78
2022/05/16 17:13:05;;;;;;;4.53;3.97;;;;;;;;;;4974659;28;20038;-77
2022/05/16 17:15:31;;;;;;;7.43;4.50;;;;;;;;;;4974847;28;20026;-79
2022/05/16 17:17:57;;;;;;;6.05;4.32;;;;;;;;;;4974508;28;20474;-75
2022/05/16 17:20:22;;;;;;;4.63;4.25;;;;;;;;;;4974667;28;20038;-79
2022/05/16 17:22:48;;;;;;;5.30;4.10;;;;;;;;;;4974750;28;20030;-78
2022/05/16 17:25:14;;;;;;;8.52;4.78;;;;;;;;;;4974735;28;20031;-78
2022/05/16 17:27:40;;;;;;;8.40;5.70;;;;;;;;;;4974743;28;20023;-74
2022/05/16 17:30:11;;;;;;;5.65;4.63;;;;;;;;;;4974812;28;20027;-75
2022/05/16 17:32:38;;;;;;;9.73;4.72;;;;;;;;;;4977253;28;20073;-76
2022/05/16 17:35:06;;;;;;;6.25;4.00;;;;;;;;;;4978614;28;20030;-75
2022/05/16 17:37:33;;;;;;;6.78;3.67;;;;;;;;;;4978423;28;20023;-76
2022/05/16 17:39:59;;;;;;;7.80;4.07;;;;;;;;;;4978412;28;20027;-76
2022/05/16 17:42:25;;;;;;;9.77;4.30;;;;;;;;;;4978373;28;20046;-75
2022/05/16 17:44:51;;;;;;;8.95;4.40;;;;;;;;;;4978173;28;20408;-75
2022/05/16 17:47:17;;;;;;;8.30;4.20;;;;;;;;;;4978638;28;20355;-75
2022/05/16 17:49:44;;;;;;;4.78;3.90;;;;;;;;;;4978472;28;20034;-76
2022/05/16 17:52:12;;;;;;;8.13;3.95;;;;;;;;;;4978172;28;20173;-76
2022/05/16 17:54:47;;;;;;;4.43;3.97;;;;;;;;;;4978245;28;20030;-78
2022/05/16 17:57:14;;;;;;;6.78;4.13;;;;;;;;;;4965921;28;20027;-77
2022/05/16 17:59:40;;;;;;;6.15;4.15;;;;;;;;;;4958713;29;20031;-79
2022/05/16 18:02:06;;;;;;;5.10;4.18;;;;;;;;;;4958595;29;20027;-77
2022/05/16 18:04:32;;;;;;;5.97;4.45;;;;;;;;;;4958868;29;20389;-78
2022/05/16 18:07:01;;;;;;;6.40;4.45;;;;;;;;;;4958744;29;20027;-79
2022/05/16 18:09:27;;;;;;;6.97;5.43;;;;;;;;;;4958844;29;20027;-79
2022/05/16 18:14:36;;;;;;;4.43;3.58;;;;;;;;;;4958998;29;20390;-78
2022/05/16 18:17:03;;;;;;;8.95;4.15;;;;;;;;;;4958703;28;20466;-78
2022/05/16 18:19:28;;;;;;;7.18;3.90;;;;;;;;;;4958344;28;20041;-78
2022/05/16 18:21:55;;;;;;;5.72;3.90;;;;;;;;;;4958578;29;20035;-78
2022/05/16 18:24:20;;;;;;;7.03;3.50;;;;;;;;;;4958578;29;20129;-79
2022/05/16 18:26:47;;;;;;;5.28;3.50;;;;;;;;;;4958639;29;20039;-75
2022/05/16 18:29:14;;;;;;;5.30;3.17;;;;;;;;;;4941130;29;20449;-77
2022/05/16 18:31:42;;;;;;;4.45;3.70;;;;;;;;;;4958233;29;20457;-80
2022/05/16 18:34:08;;;;;;;4.13;2.90;;;;;;;;;;4958465;29;20032;-76
2022/05/16 18:36:33;;;;;;;7.40;4.13;;;;;;;;;;4958356;29;20110;-76
2022/05/16 18:38:59;;;;;;;4.07;3.67;;;;;;;;;;4957827;29;20101;-76
2022/05/16 18:50:43;;;;;;;4.70;3.10;;;;;;;;;;4957884;29;20047;-75
2022/05/16 18:52:35;;;;;;;9.02;4.07;;;;;;;;;;4958161;29;20038;-77
2022/05/16 18:55:00;;;;;;;3.33;2.83;;;;;;;;;;4958082;29;20106;-76
2022/05/16 18:57:26;;;;;;;6.65;4.38;;;;;;;;;;4957618;29;20106;-76
2022/05/16 18:59:52;;;;;;;3.75;3.38;;;;;;;;;;4957582;28;20019;-78
2022/05/16 19:02:18;;;;;;;3.85;3.15;;;;;;;;;;4957705;28;20023;-75
2022/05/16 19:04:44;;;;;;;4.10;3.20;;;;;;;;;;4957515;29;20435;-76
2022/05/16 19:07:10;;;;;;;4.65;3.20;;;;;;;;;;4957446;29;20030;-79
2022/05/16 19:09:35;;;;;;;5.25;2.65;;;;;;;;;;4957754;29;20027;-78
2022/05/16 19:12:02;;;;;;;4.43;2.65;;;;;;;;;;4957643;29;20490;-77
2022/05/16 19:14:31;;;;;;;6.32;2.60;;;;;;;;;;4956197;28;20067;-78
2022/05/16 19:16:57;;;;;;;4.80;3.20;;;;;;;;;;4957472;29;20463;-79
2022/05/16 19:19:23;;;;;;;3.13;2.78;;;;;;;;;;4957403;29;20039;-77
2022/05/16 19:21:50;;;;;;;4.65;3.10;;;;;;;;;;4957442;29;20394;-83
2022/05/16 19:24:16;;;;;;;3.25;2.72;;;;;;;;;;4957295;29;20031;-84
2022/05/16 19:26:42;;;;;;;3.42;3.08;;;;;;;;;;4957386;29;20080;-80
2022/05/16 19:32:00;;;;;;;4.97;3.08;;;;;;;;;;4957089;29;20035;-81
2022/05/16 19:34:28;;;;;;;2.80;2.60;;;;;;;;;;4957170;29;20019;-81
2022/05/16 19:36:54;;;;;;;4.65;3.08;;;;;;;;;;4956973;29;20524;-77
2022/05/16 19:39:20;;;;;;;4.43;2.85;;;;;;;;;;4955456;28;20039;-78
2022/05/16 19:41:48;;;;;;;3.63;3.20;;;;;;;;;;4956746;28;20046;-81
2022/05/16 19:44:14;;;;;;;6.47;3.00;;;;;;;;;;4957002;28;20031;-80
2022/05/16 19:46:40;;;;;;;3.38;3.08;;;;;;;;;;4956983;29;20094;-79
2022/05/16 19:49:06;;;;;;;7.72;3.28;;;;;;;;;;4956997;28;20024;-78
2022/05/16 19:51:34;;;;;;;4.93;3.30;;;;;;;;;;4956829;28;20474;-79
2022/05/16 19:53:59;;;;;;;5.30;3.60;;;;;;;;;;4956914;29;20061;-76
2022/05/16 19:56:25;;;;;;;6.75;3.50;;;;;;;;;;4956992;28;20051;-80
2022/05/16 19:58:51;;;;;;;4.10;3.70;;;;;;;;;;4956477;28;20106;-79
2022/05/16 20:01:17;;;;;;;5.07;3.30;;;;;;;;;;4956794;28;20062;-78
2022/05/16 20:03:43;;;;;;;4.85;3.13;;;;;;;;;;4956847;28;20046;-81
2022/05/16 20:06:09;;;;;;;6.03;3.33;;;;;;;;;;4956857;29;20489;-80
2022/05/16 20:08:36;;;;;;;3.85;3.45;;;;;;;;;;4956285;28;20371;-78
2022/05/16 20:11:02;;;;;;;5.53;3.47;;;;;;;;;;4956599;29;20047;-76
2022/05/16 20:13:27;;;;;;;4.90;4.15;;;;;;;;;;4956539;28;20059;-80
2022/05/16 20:15:53;;;;;;;4.57;3.85;;;;;;;;;;4956363;29;20395;-81
2022/05/16 20:18:19;;;;;;;4.50;4.10;;;;;;;;;;4956477;29;20455;-81
2022/05/16 20:20:45;;;;;;;4.20;3.63;;;;;;;;;;4956180;28;20035;-77
2022/05/16 20:25:55;;;;;;;4.47;3.58;;;;;;;;;;4973815;28;20034;-78
2022/05/16 20:28:21;;;;;;;5.10;3.90;;;;;;;;;;4973219;28;20030;-81
2022/05/16 20:30:49;;;;;;;3.80;3.40;;;;;;;;;;4976628;28;20034;-81
2022/05/16 20:33:17;;;;;;;5.07;3.55;;;;;;;;;;4990295;28;20019;-79
2022/05/16 20:35:46;;;;;;;6.35;3.65;;;;;;;;;;4975042;28;20027;-77
2022/05/16 20:38:12;;;;;;;6.32;3.78;;;;;;;;;;4975364;28;20381;-75
2022/05/16 20:40:41;;;;;;;5.28;3.92;;;;;;;;;;4974840;28;20038;-77
2022/05/16 20:43:09;;;;;;;3.63;3.33;;;;;;;;;;4975066;28;20029;-78
2022/05/16 20:45:35;;;;;;;4.78;3.75;;;;;;;;;;4974945;28;20023;-77
2022/05/16 20:48:02;;;;;;;4.75;3.67;;;;;;;;;;4975005;28;20098;-76
2022/05/16 20:50:29;;;;;;;5.50;4.07;;;;;;;;;;4974868;28;20039;-77
2022/05/16 20:52:56;;;;;;;5.03;3.92;;;;;;;;;;4975102;28;20485;-77
2022/05/16 20:55:27;;;;;;;6.40;4.13;;;;;;;;;;4975087;28;20035;-78
2022/05/16 20:57:53;;;;;;;5.10;3.80;;;;;;;;;;4974898;28;20033;-78
2022/05/16 21:00:23;;;;;;;5.40;3.80;;;;;;;;;;4957803;28;20534;-78
2022/05/16 21:02:49;;;;;;;6.05;3.70;;;;;;;;;;4955822;29;20471;-79
2022/05/16 21:05:15;;;;;;;5.88;3.63;;;;;;;;;;4938444;29;20027;-77
2022/05/16 21:07:41;;;;;;;5.85;3.85;;;;;;;;;;4957338;28;20409;-76
2022/05/16 21:10:08;;;;;;;3.90;3.28;;;;;;;;;;4964430;28;20086;-78
2022/05/16 21:12:39;;;;;;;4.20;3.80;;;;;;;;;;4946731;28;20042;-77
2022/05/16 21:15:07;;;;;;;4.78;3.67;;;;;;;;;;4963956;28;20529;-82
2022/05/16 21:17:33;;;;;;;4.00;3.60;;;;;;;;;;4964119;28;20456;-77
2022/05/16 21:20:03;;;;;;;4.70;4.30;;;;;;;;;;4965400;28;20023;-79
2022/05/16 21:22:29;;;;;;;4.95;3.90;;;;;;;;;;4964458;28;20026;-81
2022/05/16 21:24:55;;;;;;;7.13;4.22;;;;;;;;;;4974127;28;20038;-82
2022/05/16 21:27:20;;;;;;;6.05;4.30;;;;;;;;;;4975077;28;20102;-82
2022/05/16 21:29:46;;;;;;;4.65;4.25;;;;;;;;;;4974573;28;20478;-80
